GCXO/TFN METAR and TAF weather

Enter ICAO airport designator
Station Type Date Time Source
GCXO METAR 2023/02/04 02:30 UTC NOAA

GCXO 040230Z AUTO VRB01KT CAVOK 09/07 Q1025


Station Type Date Time Source
GCXO Decoded METAR 2023/02/04 02:30 UTC NOAA

Tenerife / Los Rodeos, Spain (GCXO) 28-28N 016-19W 617M
Feb 03, 2023 - 09:30 PM EST / 2023.02.04 0230 UTC
Wind: Variable at 1 MPH (1 KT):0
Visibility: greater than 7 mile(s):0
Temperature: 48 F (9 C)
Dew Point: 44 F (7 C)
Relative Humidity: 87%
Pressure (altimeter): 30.27 in. Hg (1025 hPa)
ob: GCXO 040230Z AUTO VRB01KT CAVOK 09/07 Q1025
cycle: 2

Station Type Date Time Source
GCXO TAF 2023/02/04 03:27 UTC NOAA

TAF GCXO 040200Z 0403/0503 33004KT 9999 SCT020 TX15/0414Z TN10/0406Z PROB40
TEMPO 0412/0418 RA BKN013

Example: see airport list